Time;durP1;ratioP1;P1;durP2;ratioP2;P2;SDS_P1;SDS_P2;PMS_P1;PMS_P2;Temp;Humidity;BMP_temperature;BMP_pressure;BME280_temperature;BME280_humidity;BME280_pressure;Samples;Min_cycle;Max_cycle;Signal;HPM_P1;HPM_P2
2020/12/05 00:00:33;;;;;;;2.13;1.25;;;2.10;99.90;;;;;;5002942;28;20140;-70
2020/12/05 00:02:59;;;;;;;2.88;1.30;;;2.10;99.90;;;;;;4999054;28;20458;-71
2020/12/05 00:05:32;;;;;;;5.10;1.65;;;2.10;99.90;;;;;;4991104;28;20069;-70
2020/12/05 00:07:58;;;;;;;3.40;1.58;;;2.10;99.90;;;;;;4971855;28;20951;-71
2020/12/05 00:10:26;;;;;;;3.15;1.40;;;2.20;99.90;;;;;;4991328;28;20146;-71
2020/12/05 00:12:52;;;;;;;2.40;1.65;;;2.10;99.90;;;;;;4998526;28;20052;-70
2020/12/05 00:15:18;;;;;;;2.50;1.55;;;2.20;99.90;;;;;;4997162;28;20046;-70
2020/12/05 00:17:45;;;;;;;2.25;1.52;;;2.20;99.90;;;;;;4995547;28;20432;-70
2020/12/05 00:20:11;;;;;;;1.92;1.30;;;2.20;99.90;;;;;;4992479;28;20046;-71
2020/12/05 00:22:38;;;;;;;2.60;1.60;;;2.20;99.90;;;;;;4999878;28;20050;-70
2020/12/05 00:25:04;;;;;;;3.15;1.40;;;2.20;99.90;;;;;;4999776;28;20050;-70
2020/12/05 00:27:31;;;;;;;3.55;1.40;;;2.20;99.90;;;;;;4989075;28;20474;-70
2020/12/05 00:29:58;;;;;;;2.10;1.60;;;2.10;99.90;;;;;;4997857;28;20469;-70
2020/12/05 00:32:28;;;;;;;2.28;1.50;;;2.10;99.90;;;;;;4995442;28;20053;-71
2020/12/05 00:34:55;;;;;;;3.05;1.58;;;2.20;99.90;;;;;;5003884;28;20046;-70
2020/12/05 00:37:22;;;;;;;3.15;1.70;;;2.10;99.90;;;;;;4987332;28;20054;-70
2020/12/05 00:39:48;;;;;;;2.58;1.45;;;2.10;99.90;;;;;;4999358;28;20047;-70
2020/12/05 00:42:16;;;;;;;3.50;1.60;;;2.10;99.90;;;;;;4984658;28;20070;-71
2020/12/05 00:44:43;;;;;;;3.45;1.60;;;2.10;99.90;;;;;;4999154;28;20046;-71
2020/12/05 00:47:09;;;;;;;2.40;1.50;;;2.10;99.90;;;;;;4994162;28;20532;-70
2020/12/05 00:49:35;;;;;;;2.92;1.80;;;2.10;99.90;;;;;;4992988;28;20185;-70
2020/12/05 00:52:02;;;;;;;2.58;1.48;;;2.10;99.90;;;;;;4977243;28;20057;-71
2020/12/05 00:54:29;;;;;;;4.40;2.40;;;2.10;99.90;;;;;;4987064;28;20380;-71
2020/12/05 00:56:56;;;;;;;2.90;1.50;;;2.10;99.90;;;;;;4993254;28;20046;-70
2020/12/05 00:59:22;;;;;;;2.17;1.52;;;2.10;99.90;;;;;;4993736;28;20076;-70
2020/12/05 01:01:55;;;;;;;2.15;1.45;;;2.10;99.90;;;;;;5004188;28;20041;-70
2020/12/05 01:04:23;;;;;;;2.88;1.85;;;2.20;99.90;;;;;;5008712;28;20050;-70
2020/12/05 01:06:49;;;;;;;2.95;1.50;;;2.20;99.90;;;;;;4992259;28;20079;-70
2020/12/05 01:09:15;;;;;;;3.85;2.03;;;2.20;99.90;;;;;;5009105;28;20068;-70
2020/12/05 01:11:46;;;;;;;3.40;1.65;;;2.20;99.90;;;;;;5009590;28;20466;-71
2020/12/05 01:14:13;;;;;;;3.22;1.65;;;2.20;99.90;;;;;;5007660;28;20132;-71
2020/12/05 01:16:39;;;;;;;3.10;1.58;;;2.20;99.90;;;;;;4991400;28;20054;-72
2020/12/05 01:19:06;;;;;;;4.28;1.50;;;2.30;99.90;;;;;;5009047;28;20050;-70
2020/12/05 01:21:32;;;;;;;1.95;1.30;;;2.30;99.90;;;;;;5005404;28;20046;-70
2020/12/05 01:23:58;;;;;;;2.70;1.50;;;2.30;99.90;;;;;;4990316;28;20042;-70
2020/12/05 01:26:27;;;;;;;2.92;1.83;;;2.20;99.90;;;;;;5008280;28;20069;-70
2020/12/05 01:28:53;;;;;;;3.13;1.77;;;2.20;99.90;;;;;;5005286;28;20132;-72
2020/12/05 01:31:19;;;;;;;2.78;1.50;;;2.10;99.90;;;;;;5011672;28;20057;-70
2020/12/05 01:33:46;;;;;;;2.75;1.63;;;2.10;99.90;;;;;;5008611;28;20056;-70
2020/12/05 01:36:12;;;;;;;3.30;1.50;;;2.00;99.90;;;;;;5005709;28;20057;-70
2020/12/05 01:38:38;;;;;;;2.20;1.50;;;2.00;99.90;;;;;;5011700;28;20049;-71
2020/12/05 01:41:06;;;;;;;4.50;1.70;;;2.00;99.90;;;;;;5004589;28;20468;-71
2020/12/05 01:43:32;;;;;;;2.72;1.58;;;1.90;99.90;;;;;;5008435;28;20042;-71
2020/12/05 01:46:04;;;;;;;2.53;1.40;;;1.90;99.90;;;;;;5002904;28;21435;-70
2020/12/05 01:48:31;;;;;;;2.42;1.38;;;1.90;99.90;;;;;;5011235;28;20061;-70
2020/12/05 01:50:58;;;;;;;2.60;1.50;;;1.80;99.90;;;;;;5000739;28;20137;-71
2020/12/05 01:53:26;;;;;;;3.05;1.30;;;1.70;99.90;;;;;;5011619;28;20050;-70
2020/12/05 01:55:55;;;;;;;2.33;1.20;;;1.70;99.90;;;;;;4994170;28;20125;-70
2020/12/05 01:58:21;;;;;;;2.80;1.60;;;1.60;99.90;;;;;;5003578;28;20054;-70
2020/12/05 02:00:47;;;;;;;2.28;1.58;;;1.60;99.90;;;;;;4980981;28;20078;-70
2020/12/05 02:03:17;;;;;;;2.60;1.50;;;1.50;99.90;;;;;;4993027;28;20136;-70
2020/12/05 02:05:52;;;;;;;3.22;1.92;;;1.40;99.90;;;;;;4998231;28;20570;-70
2020/12/05 02:09:07;;;;;;;2.30;1.52;;;1.40;99.90;;;;;;4998113;28;20073;-70
2020/12/05 02:11:41;;;;;;;2.78;1.52;;;1.30;99.90;;;;;;4990874;28;20061;-69
2020/12/05 02:14:11;;;;;;;2.55;1.52;;;1.20;99.90;;;;;;4988073;28;20046;-69
2020/12/05 02:16:39;;;;;;;2.40;1.35;;;1.20;99.90;;;;;;5002428;28;20056;-69
2020/12/05 02:19:11;;;;;;;2.28;1.63;;;1.20;99.90;;;;;;4985241;28;20052;-69
2020/12/05 02:21:39;;;;;;;1.92;1.30;;;1.20;99.90;;;;;;5003912;28;20092;-69
2020/12/05 02:24:05;;;;;;;2.53;1.60;;;1.20;99.90;;;;;;5006654;28;20054;-70
2020/12/05 02:26:32;;;;;;;2.78;1.27;;;1.10;99.90;;;;;;4997244;28;20136;-69
2020/12/05 02:28:59;;;;;;;2.53;1.50;;;1.10;99.90;;;;;;5003990;28;20166;-69
2020/12/05 02:31:26;;;;;;;3.88;1.75;;;1.10;99.90;;;;;;5004937;28;20125;-69
2020/12/05 02:33:52;;;;;;;2.80;1.65;;;1.00;99.90;;;;;;4995491;28;20144;-69
2020/12/05 02:36:19;;;;;;;2.53;1.60;;;1.00;99.90;;;;;;4997207;28;20377;-69
2020/12/05 02:39:05;;;;;;;2.08;1.20;;;1.00;99.90;;;;;;4993294;28;20120;-69
2020/12/05 02:41:40;;;;;;;2.20;1.25;;;1.00;99.90;;;;;;5005609;28;20046;-69
2020/12/05 02:44:07;;;;;;;2.58;1.42;;;1.00;99.90;;;;;;4992518;28;20174;-69
2020/12/05 02:46:33;;;;;;;2.72;1.50;;;1.00;99.90;;;;;;5006385;28;20054;-69
2020/12/05 02:49:00;;;;;;;4.53;1.55;;;0.90;99.90;;;;;;5006869;28;20046;-69
2020/12/05 02:51:26;;;;;;;2.13;1.45;;;0.90;99.90;;;;;;5004642;28;20068;-69
2020/12/05 02:53:56;;;;;;;2.20;1.55;;;0.90;99.90;;;;;;4988321;28;20108;-69
2020/12/05 02:56:23;;;;;;;;;;;0.90;99.90;;;;;;5005627;28;20108;-69
2020/12/05 02:58:49;;;;;;;2.92;1.27;;;0.90;99.90;;;;;;5001013;28;19993;-69
2020/12/05 03:01:16;;;;;;;2.03;1.08;;;0.80;99.90;;;;;;4999734;28;20097;-69
2020/12/05 03:03:42;;;;;;;2.08;1.33;;;0.80;99.90;;;;;;4995492;28;20470;-69
2020/12/05 03:06:09;;;;;;;1.98;1.38;;;0.80;99.90;;;;;;4997591;28;20056;-69
2020/12/05 03:08:35;;;;;;;1.80;1.20;;;0.80;99.90;;;;;;4996986;28;20050;-69
2020/12/05 03:11:05;;;;;;;2.83;1.50;;;0.70;99.90;;;;;;5002616;28;20129;-69
2020/12/05 03:13:32;;;;;;;3.83;1.70;;;0.70;99.90;;;;;;4992819;28;20104;-69
2020/12/05 03:15:58;;;;;;;2.90;1.52;;;0.70;99.90;;;;;;5001601;28;20050;-69
2020/12/05 03:18:24;;;;;;;2.97;1.67;;;0.60;99.90;;;;;;4994369;28;20058;-69
2020/12/05 03:20:50;;;;;;;2.53;1.50;;;0.60;99.90;;;;;;4999669;28;20038;-69
2020/12/05 03:23:16;;;;;;;3.25;1.60;;;0.60;99.90;;;;;;4998427;28;20215;-69
2020/12/05 03:25:43;;;;;;;2.25;1.48;;;0.60;99.90;;;;;;4988611;28;20133;-69
2020/12/05 03:28:09;;;;;;;2.80;1.60;;;0.60;99.90;;;;;;4995551;28;20146;-69
2020/12/05 03:30:35;;;;;;;2.45;1.50;;;0.60;99.90;;;;;;4996329;28;20058;-69
2020/12/05 03:33:01;;;;;;;3.38;1.70;;;0.60;99.90;;;;;;4996446;28;20456;-70
2020/12/05 03:35:28;;;;;;;2.20;1.40;;;0.60;99.90;;;;;;4987926;28;20058;-69
2020/12/05 03:37:55;;;;;;;3.05;1.48;;;0.50;99.90;;;;;;5000321;28;20049;-69
2020/12/05 03:40:21;;;;;;;2.92;1.67;;;0.50;99.90;;;;;;4997140;28;20397;-69
2020/12/05 03:42:47;;;;;;;2.88;1.60;;;0.50;99.90;;;;;;4991464;28;20050;-69
2020/12/05 03:45:13;;;;;;;2.45;1.60;;;0.50;99.90;;;;;;4996250;28;20049;-69
2020/12/05 03:47:40;;;;;;;2.90;1.70;;;0.50;99.90;;;;;;4996772;28;20046;-69
2020/12/05 03:50:06;;;;;;;2.40;1.30;;;0.60;99.90;;;;;;4996988;28;20058;-69
2020/12/05 03:52:33;;;;;;;2.80;1.60;;;0.60;99.90;;;;;;4995881;28;20050;-69
2020/12/05 03:54:59;;;;;;;2.80;1.70;;;0.60;99.90;;;;;;4993900;28;20046;-69
2020/12/05 03:57:27;;;;;;;2.45;1.48;;;0.60;99.90;;;;;;4991494;28;20129;-69
2020/12/05 03:59:53;;;;;;;3.35;1.55;;;0.60;99.90;;;;;;4988173;28;20157;-69
2020/12/05 04:02:19;;;;;;;2.38;1.67;;;0.60;99.90;;;;;;4998715;28;20121;-69
2020/12/05 04:04:46;;;;;;;2.63;1.40;;;0.60;99.90;;;;;;4990005;28;20053;-69
2020/12/05 04:07:12;;;;;;;2.10;1.27;;;0.60;99.90;;;;;;4997498;28;20153;-69
2020/12/05 04:09:38;;;;;;;3.47;1.50;;;0.60;99.90;;;;;;4993081;28;20049;-69
2020/12/05 04:12:04;;;;;;;3.28;1.50;;;0.60;99.90;;;;;;4999820;28;20515;-70
2020/12/05 04:14:30;;;;;;;2.72;1.48;;;0.60;99.90;;;;;;4990124;28;20541;-69
2020/12/05 04:16:57;;;;;;;2.50;1.70;;;0.60;99.90;;;;;;4983229;28;20042;-69
2020/12/05 04:19:23;;;;;;;2.88;1.55;;;0.60;99.90;;;;;;4996644;28;20051;-70
2020/12/05 04:21:50;;;;;;;2.90;1.60;;;0.50;99.90;;;;;;4993798;28;20379;-70
2020/12/05 04:24:17;;;;;;;2.40;1.60;;;0.50;99.90;;;;;;4972971;28;20043;-69
2020/12/05 04:26:43;;;;;;;2.90;1.90;;;0.50;99.90;;;;;;4983772;28;20140;-69
2020/12/05 04:29:09;;;;;;;2.03;1.40;;;0.50;99.90;;;;;;4990237;28;20062;-69
2020/12/05 04:31:36;;;;;;;2.78;1.45;;;0.50;99.90;;;;;;4989392;28;20129;-70
2020/12/05 04:34:02;;;;;;;2.33;1.50;;;0.40;99.90;;;;;;4996935;28;20104;-69
2020/12/05 04:36:28;;;;;;;3.10;2.13;;;0.40;99.90;;;;;;4991225;28;20109;-69
2020/12/05 04:38:54;;;;;;;2.17;1.48;;;0.30;99.90;;;;;;4993426;28;20074;-70
2020/12/05 04:41:21;;;;;;;2.10;1.40;;;0.30;99.90;;;;;;5001405;28;20548;-70
2020/12/05 04:43:48;;;;;;;2.65;1.50;;;0.30;99.90;;;;;;4995465;28;20060;-70
2020/12/05 04:46:15;;;;;;;2.92;1.67;;;0.30;99.90;;;;;;4991805;28;20475;-70
2020/12/05 04:48:43;;;;;;;2.05;1.50;;;0.30;99.90;;;;;;4995659;28;20120;-70
2020/12/05 04:51:17;;;;;;;2.25;1.42;;;0.30;99.90;;;;;;4994987;28;20052;-70
2020/12/05 04:53:47;;;;;;;2.17;1.35;;;0.30;99.90;;;;;;4991267;28;20054;-70
2020/12/05 04:56:16;;;;;;;3.78;1.52;;;0.30;99.90;;;;;;4982419;28;20574;-70
2020/12/05 04:58:47;;;;;;;2.88;1.42;;;0.30;99.90;;;;;;4999146;28;20366;-70
2020/12/05 05:01:17;;;;;;;2.40;1.45;;;0.30;99.90;;;;;;5003115;28;20088;-70
2020/12/05 05:03:43;;;;;;;;;;;0.40;99.90;;;;;;5011694;28;20096;-69
2020/12/05 05:06:19;;;;;;;2.88;1.60;;;0.30;99.90;;;;;;5008285;28;19992;-70
2020/12/05 05:08:46;;;;;;;2.85;1.83;;;0.30;99.90;;;;;;5009444;28;20100;-69
2020/12/05 05:11:15;;;;;;;2.08;1.42;;;0.30;99.90;;;;;;4991321;28;20409;-69
2020/12/05 05:14:19;;;;;;;3.28;1.70;;;0.30;99.90;;;;;;5006413;28;20335;-69
2020/12/05 05:16:45;;;;;;;2.42;1.42;;;0.30;99.90;;;;;;4999196;28;20050;-69
2020/12/05 05:19:22;;;;;;;3.15;1.75;;;0.30;99.90;;;;;;5004639;28;20060;-69
2020/12/05 05:21:50;;;;;;;2.65;1.50;;;0.30;99.90;;;;;;5004039;28;20046;-69
2020/12/05 05:24:21;;;;;;;2.50;1.60;;;0.30;99.90;;;;;;5002408;28;20050;-69
2020/12/05 05:27:04;;;;;;;3.65;1.50;;;0.30;99.90;;;;;;5007161;28;20042;-69
2020/12/05 05:29:38;;;;;;;2.75;1.70;;;0.30;99.90;;;;;;5001473;28;20082;-69
2020/12/05 05:34:35;;;;;;;2.40;1.35;;;0.50;99.90;;;;;;5002301;28;20060;-69
2020/12/05 05:37:16;;;;;;;2.60;1.65;;;0.60;99.90;;;;;;5001155;28;20050;-69
2020/12/05 05:39:47;;;;;;;3.65;1.55;;;0.70;99.90;;;;;;4996595;28;20156;-69
2020/12/05 05:42:30;;;;;;;2.70;1.55;;;0.80;99.90;;;;;;4998758;28;20085;-69
2020/12/05 05:45:15;;;;;;;2.75;1.65;;;0.80;99.90;;;;;;5006244;28;20049;-69
2020/12/05 05:47:42;;;;;;;2.65;1.70;;;0.90;99.90;;;;;;5006119;28;20420;-70
2020/12/05 05:50:19;;;;;;;1.98;1.25;;;0.90;99.90;;;;;;5011385;28;20069;-69
2020/12/05 05:52:52;;;;;;;2.85;1.63;;;0.90;99.90;;;;;;5001385;28;20511;-69
2020/12/05 05:55:18;;;;;;;1.98;1.30;;;0.90;99.90;;;;;;5001534;28;20050;-69
2020/12/05 05:57:46;;;;;;;2.60;1.70;;;1.00;99.90;;;;;;5006788;28;20141;-69
2020/12/05 06:00:12;;;;;;;2.65;1.55;;;0.90;99.90;;;;;;5005472;28;20050;-69
2020/12/05 06:02:40;;;;;;;2.80;1.63;;;0.90;99.90;;;;;;4993600;28;20050;-69
2020/12/05 06:05:13;;;;;;;1.98;1.30;;;0.90;99.90;;;;;;4980926;28;20053;-69
2020/12/05 06:07:43;;;;;;;2.38;1.52;;;0.90;99.90;;;;;;4985960;28;20046;-69
2020/12/05 06:10:11;;;;;;;2.00;1.55;;;0.80;99.90;;;;;;4981915;28;20474;-69
2020/12/05 06:12:38;;;;;;;2.60;1.50;;;0.80;99.90;;;;;;4982072;28;20133;-69
2020/12/05 06:15:05;;;;;;;2.28;1.40;;;0.80;99.90;;;;;;4985820;28;20085;-69
2020/12/05 06:17:31;;;;;;;3.35;1.77;;;0.70;99.90;;;;;;4990450;28;20058;-70
2020/12/05 06:19:57;;;;;;;4.18;1.50;;;0.70;99.90;;;;;;4985172;28;20133;-70
2020/12/05 06:22:33;;;;;;;2.55;1.58;;;0.80;99.90;;;;;;4990075;28;20438;-69
2020/12/05 06:25:04;;;;;;;2.10;1.33;;;0.80;99.90;;;;;;4973633;28;20302;-69
2020/12/05 06:27:35;;;;;;;2.78;1.35;;;0.90;99.90;;;;;;4995081;28;20046;-69
2020/12/05 06:30:06;;;;;;;3.38;2.17;;;0.90;99.90;;;;;;4989925;28;20046;-69
2020/12/05 06:32:43;;;;;;;3.03;1.63;;;0.90;99.90;;;;;;4988436;28;20051;-69
2020/12/05 06:35:21;;;;;;;3.03;1.58;;;0.90;99.90;;;;;;4989819;28;20046;-69
2020/12/05 06:37:55;;;;;;;2.42;1.50;;;0.90;99.90;;;;;;4989536;28;20516;-69
2020/12/05 06:40:22;;;;;;;3.45;1.60;;;0.90;99.90;;;;;;4994180;28;20125;-69
2020/12/05 06:42:52;;;;;;;5.57;3.03;;;0.90;99.90;;;;;;4989908;28;20046;-69
2020/12/05 06:45:27;;;;;;;2.65;1.80;;;1.00;99.90;;;;;;4990816;28;20043;-69
2020/12/05 06:48:09;;;;;;;3.00;1.70;;;1.00;99.90;;;;;;4994259;28;20402;-69
2020/12/05 06:50:41;;;;;;;2.25;1.55;;;1.00;99.90;;;;;;4990393;28;20542;-69
2020/12/05 06:53:20;;;;;;;2.58;1.73;;;1.00;99.90;;;;;;4988955;28;20057;-69
2020/12/05 06:55:51;;;;;;;3.42;1.77;;;1.10;99.90;;;;;;4984017;28;20465;-69
2020/12/05 06:58:28;;;;;;;2.72;1.67;;;1.10;99.90;;;;;;4973931;28;20054;-69
2020/12/05 07:00:56;;;;;;;4.38;2.00;;;1.10;99.90;;;;;;4968174;28;20058;-69
2020/12/05 07:03:27;;;;;;;2.70;1.65;;;1.10;99.90;;;;;;4993018;28;20137;-69
2020/12/05 07:05:55;;;;;;;5.20;2.30;;;1.10;99.90;;;;;;4991907;28;20047;-69
2020/12/05 07:08:38;;;;;;;3.40;2.00;;;1.10;99.90;;;;;;4993715;28;20134;-69
2020/12/05 07:11:10;;;;;;;2.38;1.55;;;1.10;99.90;;;;;;4991495;28;20484;-70
2020/12/05 07:13:41;;;;;;;3.58;1.75;;;1.00;99.90;;;;;;4993344;28;20050;-70
2020/12/05 07:16:25;;;;;;;3.35;1.70;;;1.00;99.90;;;;;;4986640;28;20050;-70
2020/12/05 07:18:53;;;;;;;4.20;1.92;;;1.00;99.90;;;;;;4985125;28;20050;-71
2020/12/05 07:21:21;;;;;;;2.90;1.80;;;1.00;99.90;;;;;;4993088;28;20056;-70
2020/12/05 07:23:48;;;;;;;2.55;1.65;;;1.00;99.90;;;;;;4991853;28;20050;-70
2020/12/05 07:26:16;;;;;;;2.20;1.65;;;1.00;99.90;;;;;;4988762;28;20050;-71
2020/12/05 07:28:48;;;;;;;4.07;1.73;;;1.00;99.90;;;;;;4979465;28;20498;-70
2020/12/05 07:31:15;;;;;;;3.45;1.83;;;0.90;99.90;;;;;;4990523;28;20552;-70
2020/12/05 07:33:43;;;;;;;3.05;1.90;;;0.90;99.90;;;;;;4994292;28;20133;-71
2020/12/05 07:36:11;;;;;;;3.08;2.75;;;1.00;99.90;;;;;;4992769;28;20052;-70
2020/12/05 07:38:40;;;;;;;3.00;2.08;;;1.00;99.90;;;;;;4984307;28;20609;-70
2020/12/05 07:41:15;;;;;;;2.67;1.85;;;1.00;99.90;;;;;;4988687;28;20050;-71
2020/12/05 07:43:42;;;;;;;3.60;2.35;;;1.10;99.90;;;;;;4986218;28;20054;-70
2020/12/05 07:46:12;;;;;;;2.78;1.88;;;1.10;99.90;;;;;;4985649;28;20133;-70
2020/12/05 07:48:40;;;;;;;4.20;2.40;;;1.10;99.90;;;;;;4987386;28;20042;-69
2020/12/05 07:51:16;;;;;;;4.70;2.65;;;1.10;99.90;;;;;;4987434;28;20126;-70
2020/12/05 07:53:44;;;;;;;3.63;2.35;;;1.20;99.90;;;;;;4978815;28;20105;-70
2020/12/05 07:56:17;;;;;;;3.88;2.50;;;1.20;99.90;;;;;;4992579;28;20133;-71
2020/12/05 07:58:45;;;;;;;5.97;3.30;;;1.30;99.90;;;;;;4990621;28;20108;-70
2020/12/05 08:01:24;;;;;;;8.02;3.92;;;1.40;99.90;;;;;;4996217;28;20054;-70
2020/12/05 08:04:10;;;;;;;3.90;2.47;;;1.40;99.90;;;;;;4987063;28;20537;-69
2020/12/05 08:06:48;;;;;;;5.72;3.10;;;1.50;99.90;;;;;;4989382;28;20050;-69
2020/12/05 08:09:26;;;;;;;4.97;2.95;;;1.50;99.90;;;;;;4983653;28;20073;-71
2020/12/05 08:11:54;;;;;;;4.45;2.38;;;1.60;99.90;;;;;;4987184;28;20058;-70
2020/12/05 08:14:22;;;;;;;5.40;2.97;;;1.60;99.90;;;;;;4992230;28;20181;-71
2020/12/05 08:16:53;;;;;;;5.13;2.97;;;1.70;99.90;;;;;;4971473;28;20134;-70
2020/12/05 08:19:19;;;;;;;7.40;3.42;;;1.70;99.90;;;;;;4996112;28;20057;-70
2020/12/05 08:21:45;;;;;;;5.20;3.45;;;1.80;99.90;;;;;;4987121;28;20406;-71
2020/12/05 08:24:18;;;;;;;5.70;2.80;;;1.80;99.90;;;;;;4991520;28;20057;-71
2020/12/05 08:26:49;;;;;;;4.57;2.95;;;1.90;99.90;;;;;;5001457;28;20452;-70
2020/12/05 08:29:17;;;;;;;4.78;3.05;;;1.90;99.90;;;;;;4996788;28;20127;-70
2020/12/05 08:31:44;;;;;;;5.50;3.33;;;2.00;99.90;;;;;;4991591;28;20053;-70
2020/12/05 08:34:10;;;;;;;5.75;3.13;;;2.00;99.90;;;;;;4999076;28;20422;-70
2020/12/05 08:36:42;;;;;;;5.22;3.30;;;2.00;99.90;;;;;;5007691;28;20157;-70
2020/12/05 08:39:11;;;;;;;5.93;3.28;;;2.00;99.90;;;;;;5009526;28;20057;-70
2020/12/05 08:41:43;;;;;;;3.72;2.65;;;2.10;99.90;;;;;;4999159;28;20069;-70
2020/12/05 08:44:11;;;;;;;3.72;2.70;;;2.10;99.90;;;;;;5011403;28;20549;-70
2020/12/05 08:46:37;;;;;;;5.32;2.60;;;2.20;99.90;;;;;;5012142;28;20052;-70
2020/12/05 08:49:14;;;;;;;5.30;3.00;;;2.30;99.90;;;;;;5003096;28;20137;-70
2020/12/05 08:51:44;;;;;;;5.95;3.40;;;2.40;99.90;;;;;;4996031;28;20129;-70
2020/12/05 08:54:12;;;;;;;4.68;3.30;;;2.50;99.90;;;;;;4999663;28;20042;-70
2020/12/05 08:56:39;;;;;;;4.90;3.22;;;2.70;99.90;;;;;;4998144;28;20048;-70
2020/12/05 08:59:05;;;;;;;4.80;2.90;;;2.90;99.90;;;;;;4995285;28;20124;-70
2020/12/05 09:01:38;;;;;;;6.35;3.60;;;3.10;99.90;;;;;;4991991;28;20051;-70
2020/12/05 09:04:05;;;;;;;5.00;3.45;;;3.30;99.90;;;;;;4989620;28;20133;-71
2020/12/05 09:06:32;;;;;;;5.15;3.50;;;3.60;99.90;;;;;;4990786;28;20481;-71
2020/12/05 09:08:59;;;;;;;5.78;3.53;;;3.80;99.90;;;;;;5006312;28;20043;-70
2020/12/05 09:11:26;;;;;;;4.85;3.78;;;4.10;99.90;;;;;;4986512;28;20416;-70
2020/12/05 09:13:53;;;;;;;5.05;3.78;;;4.30;99.90;;;;;;5001825;28;20050;-70
2020/12/05 09:16:20;;;;;;;6.07;3.92;;;4.50;99.90;;;;;;4989092;28;20058;-70
2020/12/05 09:18:50;;;;;;;6.93;4.50;;;4.70;99.90;;;;;;4990236;28;20054;-71
2020/12/05 09:21:21;;;;;;;6.63;4.80;;;4.90;99.90;;;;;;4990957;28;20635;-71
2020/12/05 09:24:02;;;;;;;6.82;4.45;;;5.00;99.90;;;;;;5001372;28;20486;-70
2020/12/05 09:26:28;;;;;;;7.38;4.53;;;5.10;99.90;;;;;;4999464;28;20051;-70
2020/12/05 09:28:55;;;;;;;6.65;4.22;;;5.10;99.90;;;;;;5001250;28;20058;-70
2020/12/05 09:31:22;;;;;;;7.60;6.18;;;5.10;99.90;;;;;;4983187;28;20113;-71
2020/12/05 09:33:49;;;;;;;312.13;297.52;;;5.20;99.90;;;;;;4990635;28;20411;-71
2020/12/05 09:36:18;;;;;;;52.78;49.92;;;5.20;99.90;;;;;;4991209;28;20064;-70
2020/12/05 09:38:44;;;;;;;75.60;71.82;;;5.10;99.90;;;;;;4990747;28;20046;-71
2020/12/05 09:41:11;;;;;;;11.15;9.77;;;5.10;99.90;;;;;;4991888;28;20049;-70
2020/12/05 09:43:38;;;;;;;7.25;4.35;;;5.10;99.90;;;;;;4990385;28;20454;-71
2020/12/05 09:46:04;;;;;;;6.75;4.78;;;5.10;99.90;;;;;;4990612;28;20047;-70
2020/12/05 09:48:31;;;;;;;7.50;5.20;;;5.10;99.90;;;;;;4994011;28;20078;-71
2020/12/05 09:50:57;;;;;;;6.35;4.55;;;5.10;99.90;;;;;;4989572;28;20050;-70
2020/12/05 09:53:26;;;;;;;7.10;4.88;;;5.10;99.90;;;;;;4990116;28;20054;-71
2020/12/05 09:55:53;;;;;;;7.95;4.68;;;5.10;99.90;;;;;;4988832;28;20117;-70
2020/12/05 09:58:19;;;;;;;7.20;5.28;;;5.20;99.90;;;;;;4980945;28;20125;-70
2020/12/05 10:00:46;;;;;;;8.10;4.85;;;5.40;99.90;;;;;;4988870;28;20061;-70
2020/12/05 10:03:13;;;;;;;7.50;4.97;;;5.60;99.90;;;;;;4978094;28;20050;-70
2020/12/05 10:05:39;;;;;;;7.75;5.25;;;5.70;99.90;;;;;;4977162;28;20050;-70
2020/12/05 10:08:09;;;;;;;6.13;4.18;;;5.80;99.90;;;;;;4979488;28;20050;-71
2020/12/05 10:10:35;;;;;;;7.22;4.63;;;5.90;99.90;;;;;;4993568;28;20327;-70
2020/12/05 10:13:02;;;;;;;6.15;4.50;;;6.00;99.90;;;;;;4981758;28;20445;-71
2020/12/05 10:15:29;;;;;;;8.98;4.93;;;6.10;99.90;;;;;;4993128;28;20127;-70
2020/12/05 10:17:55;;;;;;;8.02;4.60;;;6.20;99.90;;;;;;4977869;28;20130;-71
2020/12/05 10:20:21;;;;;;;5.93;4.30;;;6.30;99.90;;;;;;4981870;28;20149;-70
2020/12/05 10:22:48;;;;;;;7.97;5.00;;;6.50;99.90;;;;;;4999071;28;20468;-70
2020/12/05 10:25:15;;;;;;;7.35;5.20;;;6.70;99.90;;;;;;4990638;28;20128;-70
2020/12/05 10:27:42;;;;;;;8.73;5.22;;;6.80;99.90;;;;;;4978494;28;20051;-71
2020/12/05 10:30:09;;;;;;;7.10;5.15;;;7.00;99.90;;;;;;4994257;28;20054;-71
2020/12/05 10:32:37;;;;;;;8.13;5.03;;;7.30;99.90;;;;;;4990023;28;20054;-70
2020/12/05 10:35:04;;;;;;;6.90;4.70;;;7.70;99.90;;;;;;4972397;28;20050;-71
2020/12/05 10:37:30;;;;;;;7.35;5.10;;;8.00;99.90;;;;;;4978057;28;20057;-71
2020/12/05 10:39:56;;;;;;;7.40;5.00;;;8.20;99.90;;;;;;4979545;28;20046;-70
2020/12/05 10:42:23;;;;;;;7.00;4.80;;;8.40;99.90;;;;;;4998642;28;20478;-70
2020/12/05 10:44:50;;;;;;;6.65;4.55;;;8.70;99.90;;;;;;4978959;28;20046;-71
2020/12/05 10:47:17;;;;;;;6.30;5.03;;;8.90;99.90;;;;;;5002387;28;20054;-70
2020/12/05 10:49:45;;;;;;;7.88;4.68;;;9.10;99.90;;;;;;4984223;28;20085;-70
2020/12/05 10:52:11;;;;;;;5.65;4.60;;;9.30;99.90;;;;;;4980797;28;20050;-71
2020/12/05 10:54:38;;;;;;;7.88;4.80;;;9.50;99.90;;;;;;4987140;28;20054;-70
2020/12/05 10:57:04;;;;;;;6.40;4.45;;;9.60;99.90;;;;;;4982053;28;20054;-70
2020/12/05 10:59:31;;;;;;;6.38;4.30;;;9.70;99.90;;;;;;4980790;28;20053;-70
2020/12/05 11:01:58;;;;;;;8.10;4.63;;;9.70;99.90;;;;;;5001963;28;20055;-70
2020/12/05 11:04:25;;;;;;;5.78;4.13;;;9.80;99.90;;;;;;4997698;28;20053;-71
2020/12/05 11:06:51;;;;;;;5.20;3.95;;;9.90;99.90;;;;;;4987956;28;20450;-71
2020/12/05 11:09:18;;;;;;;8.10;4.53;;;10.00;99.90;;;;;;4996784;28;20559;-70
2020/12/05 11:11:45;;;;;;;7.05;4.38;;;10.00;99.90;;;;;;4990813;28;20061;-70
2020/12/05 11:14:13;;;;;;;6.00;3.67;;;10.20;99.90;;;;;;4975005;28;20069;-70
2020/12/05 11:16:39;;;;;;;5.80;3.83;;;10.20;99.90;;;;;;4974916;28;20085;-70
2020/12/05 11:19:07;;;;;;;5.53;3.90;;;10.20;99.90;;;;;;4989420;28;20081;-70
2020/12/05 11:21:33;;;;;;;5.10;3.70;;;10.20;99.90;;;;;;4990875;28;20516;-70
2020/12/05 11:24:00;;;;;;;5.45;4.15;;;10.20;99.90;;;;;;4996275;28;20082;-70
2020/12/05 11:26:27;;;;;;;4.70;3.67;;;10.30;99.90;;;;;;4984576;28;20354;-69
2020/12/05 11:28:55;;;;;;;5.60;3.50;;;10.20;99.90;;;;;;4996827;28;20050;-70
2020/12/05 11:31:22;;;;;;;7.10;3.60;;;10.10;99.90;;;;;;4976852;28;20058;-70
2020/12/05 11:33:49;;;;;;;5.90;3.42;;;10.20;99.90;;;;;;4984699;28;20050;-70
2020/12/05 11:36:15;;;;;;;4.65;3.10;;;10.20;99.90;;;;;;5001088;28;20066;-70
2020/12/05 11:38:43;;;;;;;4.22;3.17;;;10.00;99.90;;;;;;4976413;28;20378;-70
2020/12/05 11:41:10;;;;;;;5.97;3.40;;;9.80;99.90;;;;;;4982973;28;20053;-70
2020/12/05 11:43:37;;;;;;;5.65;3.53;;;9.30;99.90;;;;;;4998506;28;20054;-70
2020/12/05 11:46:03;;;;;;;4.55;3.15;;;8.90;99.90;;;;;;4979461;28;20116;-69
2020/12/05 11:48:30;;;;;;;4.35;2.85;;;8.60;99.90;;;;;;4988726;28;20046;-70
2020/12/05 11:50:57;;;;;;;6.03;2.90;;;8.80;99.90;;;;;;4992301;28;20054;-70
2020/12/05 11:53:23;;;;;;;4.95;2.90;;;9.10;99.90;;;;;;4980776;28;20379;-69
2020/12/05 11:55:50;;;;;;;5.05;3.00;;;9.50;99.90;;;;;;4993274;28;20054;-70
2020/12/05 11:58:18;;;;;;;4.65;2.78;;;9.50;99.90;;;;;;4971330;28;20108;-70
2020/12/05 12:00:45;;;;;;;4.78;3.10;;;9.40;99.90;;;;;;4990685;28;20077;-69
2020/12/05 12:03:11;;;;;;;4.63;3.03;;;9.10;99.90;;;;;;4979205;28;20121;-70
2020/12/05 12:05:38;;;;;;;4.55;3.05;;;9.10;99.90;;;;;;4998084;28;20445;-70
2020/12/05 12:08:04;;;;;;;4.15;3.00;;;9.20;99.90;;;;;;4973020;28;20042;-69
2020/12/05 12:10:32;;;;;;;4.88;3.00;;;9.20;99.90;;;;;;4975814;28;20502;-70
2020/12/05 12:12:59;;;;;;;4.53;2.78;;;9.50;99.90;;;;;;4978313;28;20054;-70
2020/12/05 12:15:25;;;;;;;4.20;2.67;;;9.80;99.90;;;;;;4981449;28;20574;-70
2020/12/05 12:17:53;;;;;;;5.10;2.65;;;10.00;99.90;;;;;;4994149;28;20050;-70
2020/12/05 12:20:22;;;;;;;4.72;3.15;;;10.30;99.90;;;;;;4977286;28;20046;-70
2020/12/05 12:22:48;;;;;;;4.72;2.55;;;10.60;99.90;;;;;;4980962;28;20552;-70
2020/12/05 12:25:15;;;;;;;3.58;2.35;;;10.70;99.90;;;;;;4982124;28;20046;-70
2020/12/05 12:27:42;;;;;;;3.80;2.40;;;10.60;99.90;;;;;;4977929;28;20046;-70
2020/12/05 12:30:08;;;;;;;3.50;2.47;;;10.40;99.90;;;;;;4976167;28;20049;-70
2020/12/05 12:32:34;;;;;;;4.03;2.47;;;10.30;99.90;;;;;;4969721;28;20058;-70
2020/12/05 12:35:01;;;;;;;4.60;2.53;;;10.10;99.90;;;;;;4971066;28;20058;-70
2020/12/05 12:37:28;;;;;;;3.70;2.22;;;9.80;99.90;;;;;;4968391;28;20050;-69
2020/12/05 12:39:55;;;;;;;5.35;2.38;;;9.90;99.90;;;;;;4978268;28;20062;-70
2020/12/05 12:42:25;;;;;;;3.85;2.28;;;10.10;99.90;;;;;;4980170;28;20042;-69
2020/12/05 12:44:52;;;;;;;5.47;2.67;;;10.30;99.90;;;;;;4972387;28;20058;-70
2020/12/05 12:50:02;;;;;;;3.95;2.30;;;10.70;99.90;;;;;;4991905;28;20054;-69
2020/12/05 12:52:29;;;;;;;4.40;2.47;;;10.60;99.90;;;;;;4974244;28;20112;-70
2020/12/05 12:54:55;;;;;;;4.70;2.00;;;10.30;99.90;;;;;;4973882;28;20113;-70
2020/12/05 12:57:25;;;;;;;4.10;2.22;;;9.90;99.90;;;;;;4975738;28;20058;-69
2020/12/05 12:59:52;;;;;;;4.35;2.30;;;9.60;99.90;;;;;;4971929;28;20153;-69
2020/12/05 13:02:18;;;;;;;4.28;2.38;;;9.30;99.90;;;;;;4997898;28;20054;-70
2020/12/05 13:04:44;;;;;;;3.95;2.15;;;8.90;99.90;;;;;;5000026;28;20108;-69
2020/12/05 13:07:13;;;;;;;4.68;2.38;;;8.70;99.90;;;;;;4990849;28;20056;-69